createdAt,value
2022-09-27T03:54:34.593Z,84.70
2022-09-27T03:57:58.713Z,84.77
2022-09-27T04:01:34.665Z,84.86
2022-09-27T04:05:04.750Z,84.82
2022-09-27T04:08:29.549Z,84.78
2022-09-27T04:11:53.108Z,84.74
2022-09-27T04:15:17.181Z,84.71
2022-09-27T04:19:01.690Z,84.84
2022-09-27T04:22:41.003Z,84.90
2022-09-27T04:26:05.222Z,84.93
2022-09-27T04:29:45.289Z,85.04
2022-09-27T04:33:27.282Z,85.08
2022-09-27T04:37:06.475Z,85.13
2022-09-27T04:40:37.124Z,85.11
2022-09-27T04:44:01.619Z,85.36
2022-09-27T04:47:25.511Z,85.22
2022-09-27T04:50:58.330Z,85.34
2022-09-27T04:54:22.922Z,85.54
2022-09-27T04:58:02.585Z,85.59
2022-09-27T05:01:27.226Z,85.76
2022-09-27T05:05:06.298Z,85.70
2022-09-27T05:08:32.929Z,85.69
2022-09-27T05:12:14.747Z,85.76
2022-09-27T05:15:49.580Z,85.72
2022-09-27T05:19:39.006Z,85.61
2022-09-27T05:23:29.060Z,85.53
2022-09-27T05:26:52.904Z,85.47
2022-09-27T05:30:17.031Z,85.34
2022-09-27T05:33:44.490Z,85.26
2022-09-27T05:37:27.346Z,85.25
2022-09-27T05:40:51.134Z,85.17
2022-09-27T05:44:14.834Z,84.87
2022-09-27T05:47:43.971Z,84.96
2022-09-27T05:51:08.104Z,84.75
2022-09-27T05:54:34.181Z,84.78
2022-09-27T05:58:00.045Z,84.72
2022-09-27T06:01:30.348Z,84.58
2022-09-27T06:05:13.509Z,84.48
2022-09-27T06:09:12.478Z,84.58
2022-09-27T06:12:36.146Z,84.47
2022-09-27T06:16:03.649Z,84.24
2022-09-27T06:19:27.509Z,84.43
2022-09-27T06:22:53.445Z,84.31
2022-09-27T06:26:17.501Z,84.36
2022-09-27T06:30:14.865Z,84.20
2022-09-27T06:33:50.497Z,84.13
2022-09-27T06:37:15.330Z,84.14
2022-09-27T06:40:39.419Z,83.99
2022-09-27T06:44:23.164Z,84.03
2022-09-27T06:48:06.321Z,83.95
2022-09-27T06:51:36.636Z,84.05
2022-09-27T06:55:00.348Z,83.69
2022-09-27T06:58:43.234Z,83.84
2022-09-27T07:02:29.598Z,83.86
2022-09-27T07:06:26.568Z,83.98
2022-09-27T07:09:56.873Z,83.83
2022-09-27T07:13:26.221Z,83.96
2022-09-27T07:16:50.282Z,84.12
2022-09-27T07:20:15.299Z,83.84
2022-09-27T07:23:38.871Z,83.85
2022-09-27T07:27:04.492Z,83.76
2022-09-27T07:30:30.217Z,83.63
2022-09-27T07:33:54.612Z,83.13
2022-09-27T07:37:18.255Z,82.81
2022-09-27T07:40:44.146Z,82.69
2022-09-27T07:44:09.671Z,82.36
2022-09-27T07:47:43.336Z,82.19
2022-09-27T07:51:17.724Z,81.94
2022-09-27T07:54:48.382Z,81.90
2022-09-27T07:58:27.488Z,81.64
2022-09-27T08:01:56.244Z,81.68
2022-09-27T08:05:19.980Z,81.47
2022-09-27T08:08:44.131Z,81.35
2022-09-27T08:12:09.691Z,81.16
2022-09-27T08:15:35.944Z,80.96
2022-09-27T08:18:59.667Z,80.42
2022-09-27T08:22:43.525Z,80.27
2022-09-27T08:26:30.143Z,79.95
2022-09-27T08:30:09.994Z,79.71
2022-09-27T08:33:36.759Z,79.61
2022-09-27T08:37:05.383Z,79.46
2022-09-27T08:40:46.232Z,79.29
2022-09-27T08:44:20.496Z,79.32
2022-09-27T08:48:00.702Z,78.94
2022-09-27T08:51:29.872Z,78.79
2022-09-27T08:54:56.469Z,78.51
2022-09-27T08:58:26.112Z,78.20
2022-09-27T09:01:50.222Z,78.01
2022-09-27T09:05:30.051Z,77.92
2022-09-27T09:09:08.480Z,77.42
2022-09-27T09:12:48.085Z,77.01
2022-09-27T09:16:30.837Z,76.61
2022-09-27T09:20:03.318Z,76.19
2022-09-27T09:23:51.700Z,75.42
2022-09-27T09:27:24.167Z,74.96
2022-09-27T09:31:05.130Z,74.97
2022-09-27T09:34:36.760Z,73.90
2022-09-27T09:38:06.232Z,73.65
2022-09-27T09:41:36.635Z,72.85
2022-09-27T09:45:05.318Z,72.01
2022-09-27T09:48:37.112Z,71.47
2022-09-27T09:52:08.913Z,70.93
2022-09-27T09:55:36.262Z,70.56
2022-09-27T09:59:02.340Z,70.32
2022-09-27T10:02:34.761Z,69.88
2022-09-27T10:06:09.454Z,69.86
2022-09-27T10:09:33.921Z,69.67
2022-09-27T10:13:18.830Z,68.86
2022-09-27T10:16:48.025Z,69.05
2022-09-27T10:20:24.580Z,68.93
2022-09-27T10:24:13.549Z,68.57
2022-09-27T10:28:06.755Z,68.46
2022-09-27T10:31:36.861Z,68.52
2022-09-27T10:35:32.675Z,68.61
2022-09-27T10:39:00.028Z,68.80
2022-09-27T10:42:38.021Z,69.17
2022-09-27T10:46:16.375Z,69.13
2022-09-27T10:49:44.328Z,69.12
2022-09-27T10:53:29.094Z,69.19
2022-09-27T10:57:01.284Z,69.47
2022-09-27T11:00:28.893Z,69.99
2022-09-27T11:03:57.717Z,70.12
2022-09-27T11:07:22.937Z,69.92
2022-09-27T11:11:16.112Z,69.92
2022-09-27T11:14:42.110Z,70.04
2022-09-27T11:18:15.485Z,69.84
2022-09-27T11:21:50.927Z,69.90
2022-09-27T11:25:31.714Z,69.93
2022-09-27T11:29:07.712Z,69.66
2022-09-27T11:33:14.418Z,69.55
2022-09-27T11:37:00.461Z,69.96
2022-09-27T11:40:35.193Z,69.75
2022-09-27T11:44:14.287Z,69.67
2022-09-27T11:47:47.951Z,69.70
2022-09-27T11:51:36.433Z,69.50
2022-09-27T11:55:15.158Z,69.10
2022-09-27T11:58:50.879Z,69.03
2022-09-27T12:02:38.610Z,68.97
2022-09-27T12:06:11.742Z,68.94
2022-09-27T12:09:42.956Z,68.93
2022-09-27T12:13:11.773Z,68.74
2022-09-27T12:16:39.032Z,68.55
2022-09-27T12:20:10.403Z,68.42
2022-09-27T12:23:47.271Z,68.57
2022-09-27T12:27:37.762Z,68.46
2022-09-27T12:31:28.071Z,68.51
2022-09-27T12:35:01.597Z,68.66
2022-09-27T12:38:34.345Z,68.82
2022-09-27T12:42:05.070Z,68.94
2022-09-27T12:45:52.431Z,68.94
2022-09-27T12:49:28.616Z,68.92
2022-09-27T12:52:56.503Z,69.01
2022-09-27T12:56:32.270Z,69.31
2022-09-27T13:00:12.004Z,69.39
2022-09-27T13:04:06.768Z,69.43
2022-09-27T13:07:42.606Z,69.38
2022-09-27T13:11:17.205Z,69.65
2022-09-27T13:14:48.401Z,69.59
2022-09-27T13:18:30.554Z,69.58
2022-09-27T13:21:58.997Z,69.61
2022-09-27T13:25:55.132Z,69.55
2022-09-27T13:29:36.002Z,69.55
2022-09-27T13:33:35.386Z,69.43
2022-09-27T13:37:19.757Z,69.42
2022-09-27T13:40:43.717Z,69.47
2022-09-27T13:44:28.877Z,69.62
2022-09-27T13:47:56.718Z,69.55
2022-09-27T13:51:35.067Z,69.43
2022-09-27T13:55:01.260Z,69.29
2022-09-27T13:58:46.652Z,69.11
2022-09-27T14:02:36.323Z,69.24
2022-09-27T14:06:08.436Z,69.13
2022-09-27T14:09:37.649Z,69.09
2022-09-27T14:13:07.542Z,69.11
2022-09-27T14:16:45.671Z,69.25
2022-09-27T14:20:32.098Z,69.44
2022-09-27T14:24:22.776Z,69.58
2022-09-27T14:27:46.482Z,69.78
2022-09-27T14:31:26.567Z,70.02
2022-09-27T14:35:35.321Z,70.13
2022-09-27T14:38:59.002Z,69.98
2022-09-27T14:42:36.497Z,69.85
2022-09-27T14:46:02.398Z,69.82
2022-09-27T14:49:26.364Z,69.86
2022-09-27T14:52:54.201Z,69.94
2022-09-27T14:56:22.380Z,69.93
2022-09-27T14:59:47.472Z,69.99
2022-09-27T15:03:24.145Z,69.99
2022-09-27T15:06:48.935Z,70.08
2022-09-27T15:10:16.978Z,70.04
2022-09-27T15:13:42.727Z,69.98
2022-09-27T15:17:15.142Z,69.90
2022-09-27T15:20:53.777Z,70.12
2022-09-27T15:24:40.909Z,70.08
2022-09-27T15:28:14.107Z,69.98
2022-09-27T15:31:37.633Z,70.00
2022-09-27T15:35:08.125Z,70.16
2022-09-27T15:38:33.001Z,70.39
2022-09-27T15:42:05.442Z,70.56
2022-09-27T15:45:30.617Z,70.56
2022-09-27T15:49:34.432Z,70.61
2022-09-27T15:52:57.960Z,70.61
2022-09-27T15:56:21.381Z,70.82
2022-09-27T15:59:44.717Z,70.90
2022-09-27T16:03:09.852Z,70.98
2022-09-27T16:06:33.347Z,71.18
2022-09-27T16:09:57.168Z,71.21
2022-09-27T16:13:20.912Z,71.39
2022-09-27T16:16:46.388Z,71.62
2022-09-27T16:20:18.031Z,71.81
2022-09-27T16:23:41.342Z,71.98
2022-09-27T16:27:05.368Z,72.13
2022-09-27T16:30:29.750Z,72.26
2022-09-27T16:33:53.135Z,72.42
2022-09-27T16:37:16.683Z,72.78
2022-09-27T16:40:40.678Z,72.79
2022-09-27T16:44:07.950Z,71.49
2022-09-27T16:47:32.014Z,71.60
2022-09-27T16:51:16.283Z,71.92
2022-09-27T16:54:43.226Z,72.10
2022-09-27T16:58:08.070Z,72.27
2022-09-27T17:01:32.025Z,72.44
2022-09-27T17:04:55.757Z,72.72
2022-09-27T17:08:19.248Z,72.94
2022-09-27T17:11:43.818Z,73.46
2022-09-27T17:15:09.043Z,73.58
2022-09-27T17:18:32.933Z,73.83
2022-09-27T17:21:57.113Z,74.02
2022-09-27T17:25:21.157Z,74.46
2022-09-27T17:28:44.914Z,74.65
2022-09-27T17:32:08.486Z,74.94
2022-09-27T17:35:32.100Z,75.06
2022-09-27T17:38:55.752Z,75.17
2022-09-27T17:42:20.028Z,75.50
2022-09-27T17:45:44.949Z,75.73
2022-09-27T17:49:28.384Z,75.82
2022-09-27T17:52:52.857Z,76.14
2022-09-27T17:56:16.835Z,76.32
2022-09-27T17:59:40.276Z,76.48
2022-09-27T18:03:03.951Z,77.05
2022-09-27T18:06:28.299Z,77.38
2022-09-27T18:09:52.597Z,77.28
2022-09-27T18:13:16.441Z,77.54
2022-09-27T18:16:43.652Z,77.65
2022-09-27T18:20:08.784Z,78.08
2022-09-27T18:23:32.990Z,78.45
2022-09-27T18:26:59.268Z,78.44
2022-09-27T18:30:23.634Z,78.38
2022-09-27T18:33:47.813Z,78.45
2022-09-27T18:37:11.584Z,78.67
2022-09-27T18:40:55.267Z,79.27
2022-09-27T18:44:20.160Z,79.29
2022-09-27T18:47:43.828Z,79.23
2022-09-27T18:51:08.979Z,79.33
2022-09-27T18:54:32.535Z,79.17
2022-09-27T18:57:56.804Z,79.45
2022-09-27T19:01:21.776Z,79.38
2022-09-27T19:04:45.119Z,79.37
2022-09-27T19:08:08.944Z,79.38
2022-09-27T19:11:34.009Z,79.48
2022-09-27T19:14:57.562Z,79.48
2022-09-27T19:18:21.079Z,79.49
2022-09-27T19:21:45.654Z,79.69
2022-09-27T19:25:10.919Z,79.83
2022-09-27T19:28:36.753Z,79.95
2022-09-27T19:32:00.433Z,80.14
2022-09-27T19:35:24.159Z,80.22
2022-09-27T19:38:49.575Z,80.13
2022-09-27T19:42:12.963Z,80.39
2022-09-27T19:45:36.986Z,80.39
2022-09-27T19:49:01.021Z,80.62
2022-09-27T19:52:24.579Z,80.77
2022-09-27T19:55:57.580Z,80.81
2022-09-27T19:59:21.471Z,80.75
2022-09-27T20:02:45.396Z,80.90
2022-09-27T20:06:11.515Z,80.92
2022-09-27T20:09:35.989Z,81.01
2022-09-27T20:12:59.976Z,81.08
2022-09-27T20:16:25.224Z,80.99
2022-09-27T20:19:49.226Z,81.12
2022-09-27T20:23:13.243Z,81.08
2022-09-27T20:26:37.438Z,81.14
2022-09-27T20:30:02.412Z,81.11
2022-09-27T20:33:43.096Z,81.31
2022-09-27T20:37:07.649Z,81.11
2022-09-27T20:40:34.018Z,81.04
2022-09-27T20:43:59.906Z,81.53
2022-09-27T20:47:23.869Z,81.75
2022-09-27T20:50:47.566Z,81.43
2022-09-27T20:54:12.914Z,81.56
2022-09-27T20:57:56.545Z,81.71
2022-09-27T21:01:22.020Z,81.63
2022-09-27T21:04:45.789Z,81.67
2022-09-27T21:08:09.279Z,81.79
2022-09-27T21:11:32.965Z,81.69
2022-09-27T21:14:56.345Z,81.52
2022-09-27T21:18:20.066Z,81.74
2022-09-27T21:21:43.415Z,81.77
2022-09-27T21:25:08.640Z,81.86
2022-09-27T21:28:36.810Z,81.81
2022-09-27T21:32:00.234Z,81.75
2022-09-27T21:35:24.502Z,81.68
2022-09-27T21:38:47.898Z,81.74
2022-09-27T21:42:11.110Z,81.79
2022-09-27T21:45:34.524Z,81.66
2022-09-27T21:49:01.472Z,81.67
2022-09-27T21:52:26.962Z,81.79
2022-09-27T21:55:56.887Z,81.61
2022-09-27T21:59:20.350Z,81.94
2022-09-27T22:02:43.624Z,81.83
2022-09-27T22:06:11.849Z,81.66
2022-09-27T22:09:35.232Z,81.69
2022-09-27T22:12:58.499Z,81.66
2022-09-27T22:16:23.022Z,81.70
2022-09-27T22:19:46.633Z,81.65
2022-09-27T22:23:09.971Z,81.61
2022-09-27T22:26:36.438Z,81.59
2022-09-27T22:29:59.768Z,81.73
2022-09-27T22:33:23.379Z,81.64
2022-09-27T22:36:47.053Z,81.50
2022-09-27T22:40:11.839Z,81.46
2022-09-27T22:43:35.710Z,81.49
2022-09-27T22:46:59.758Z,81.53
2022-09-27T22:50:23.575Z,81.59
